Time;durP1;ratioP1;P1;durP2;ratioP2;P2;SDS_P1;SDS_P2;PMS_P1;PMS_P2;Temp;Humidity;BMP_temperature;BMP_pressure;BME280_temperature;BME280_humidity;BME280_pressure;Samples;Min_cycle;Max_cycle;Signal;HPM_P1;HPM_P2
2022/12/29 00:01:09;;;;;;;8.55;6.45;;;10.00;99.90;;;;;;4903386;29;20051;-82
2022/12/29 00:03:34;;;;;;;8.60;6.80;;;10.00;99.90;;;;;;4918771;29;20138;-78
2022/12/29 00:06:00;;;;;;;8.80;5.60;;;10.10;99.90;;;;;;4919000;29;20126;-76
2022/12/29 00:08:39;;;;;;;8.15;6.32;;;10.10;99.90;;;;;;4917502;29;20146;-81
2022/12/29 00:11:16;;;;;;;9.90;6.38;;;10.10;99.90;;;;;;4910139;29;20048;-78
2022/12/29 00:16:28;;;;;;;8.32;6.22;;;10.20;99.90;;;;;;4914604;29;20047;-76
2022/12/29 00:18:53;;;;;;;8.45;6.18;;;10.20;99.90;;;;;;4903277;29;20058;-78
2022/12/29 00:35:38;;;;;;;8.80;6.50;;;10.10;99.90;;;;;;4918549;29;20062;-75
2022/12/29 00:46:18;;;;;;;10.05;6.90;;;10.20;99.90;;;;;;4921210;29;20059;-82
2022/12/29 00:51:28;;;;;;;9.02;6.30;;;10.20;99.90;;;;;;4918638;29;20127;-86
2022/12/29 00:53:54;;;;;;;8.07;5.38;;;10.20;99.90;;;;;;4914914;29;20127;-77
2022/12/29 00:56:20;;;;;;;8.75;5.70;;;10.20;99.90;;;;;;4918793;29;20043;-84
2022/12/29 00:58:45;;;;;;;8.50;5.97;;;10.20;99.90;;;;;;4918517;29;20071;-84
2022/12/29 01:01:11;;;;;;;7.72;5.80;;;10.20;99.90;;;;;;4918244;29;20051;-83
2022/12/29 01:03:38;;;;;;;7.88;5.70;;;10.20;99.90;;;;;;4937171;29;20099;-86
2022/12/29 01:06:06;;;;;;;7.43;5.05;;;10.20;99.90;;;;;;4921437;29;20130;-86
2022/12/29 01:08:32;;;;;;;7.13;4.85;;;10.20;99.90;;;;;;4908195;29;20051;-80
2022/12/29 01:11:10;;;;;;;7.93;5.18;;;10.20;99.90;;;;;;4921728;29;20122;-74
2022/12/29 01:13:37;;;;;;;7.35;4.60;;;10.30;99.90;;;;;;4908855;29;20056;-74
2022/12/29 01:16:04;;;;;;;6.75;4.30;;;10.40;99.90;;;;;;4906333;29;20055;-79
2022/12/29 01:18:30;;;;;;;5.97;4.05;;;10.40;99.90;;;;;;4905811;29;20048;-76
2022/12/29 01:21:05;;;;;;;6.78;4.13;;;10.40;99.90;;;;;;4938514;29;20134;-80
2022/12/29 01:23:32;;;;;;;8.63;4.57;;;10.40;99.90;;;;;;4920860;29;20451;-83
2022/12/29 01:26:07;;;;;;;6.50;3.92;;;10.40;99.90;;;;;;4921823;29;20126;-75
2022/12/29 01:28:33;;;;;;;6.60;4.60;;;10.50;99.90;;;;;;4921090;29;20385;-78
2022/12/29 01:31:00;;;;;;;5.90;3.67;;;10.50;99.90;;;;;;4921970;29;20134;-77
2022/12/29 01:33:26;;;;;;;8.02;4.13;;;10.50;99.90;;;;;;4932886;29;20165;-82
2022/12/29 01:35:52;;;;;;;6.45;3.92;;;10.50;99.90;;;;;;4923006;29;20055;-81
2022/12/29 01:38:18;;;;;;;6.50;4.15;;;10.60;99.90;;;;;;4924812;29;20480;-82
2022/12/29 01:40:47;;;;;;;7.93;3.90;;;10.50;99.90;;;;;;4921268;29;20082;-82
2022/12/29 01:43:14;;;;;;;6.95;3.95;;;10.60;99.90;;;;;;4920585;29;20051;-79
2022/12/29 01:45:47;;;;;;;6.10;4.20;;;10.60;99.90;;;;;;4937177;29;20114;-79
2022/12/29 01:48:14;;;;;;;6.78;4.00;;;10.60;99.90;;;;;;4919639;29;20056;-81
2022/12/29 01:50:49;;;;;;;7.40;3.80;;;10.60;99.90;;;;;;4902272;29;20044;-77
2022/12/29 01:53:24;;;;;;;6.25;3.58;;;10.60;99.90;;;;;;4916611;29;20449;-73
2022/12/29 01:55:58;;;;;;;6.07;3.95;;;10.60;99.90;;;;;;4920968;29;20062;-81
2022/12/29 01:58:29;;;;;;;6.38;3.78;;;10.70;99.90;;;;;;4920927;29;20058;-80
2022/12/29 02:00:55;;;;;;;6.72;3.40;;;10.70;99.90;;;;;;4917974;29;20086;-74
2022/12/29 02:03:22;;;;;;;6.47;3.50;;;10.80;99.90;;;;;;4915763;29;20059;-73
2022/12/29 02:05:55;;;;;;;7.45;3.70;;;10.80;99.90;;;;;;4914414;29;20131;-74
2022/12/29 02:08:24;;;;;;;5.45;3.40;;;10.80;99.90;;;;;;4915773;29;20060;-78
2022/12/29 02:10:50;;;;;;;5.60;2.92;;;10.90;99.90;;;;;;4923373;29;20048;-75
2022/12/29 02:13:17;;;;;;;5.93;3.10;;;10.90;99.90;;;;;;4920334;29;20047;-77
2022/12/29 02:15:48;;;;;;;5.78;3.15;;;10.80;99.90;;;;;;4919899;29;20563;-76
2022/12/29 02:18:20;;;;;;;7.07;2.90;;;10.90;99.90;;;;;;4917256;29;20052;-74
2022/12/29 02:21:13;;;;;;;8.17;2.90;;;10.90;99.90;;;;;;4932996;29;20085;-76
2022/12/29 02:24:08;;;;;;;6.25;3.05;;;10.90;99.90;;;;;;4936326;29;20062;-73
2022/12/29 02:27:03;;;;;;;5.00;2.80;;;10.90;99.90;;;;;;4909588;29;20122;-77
2022/12/29 02:30:07;;;;;;;4.75;2.70;;;10.80;99.90;;;;;;4916383;29;20048;-75
2022/12/29 02:32:52;;;;;;;5.72;2.90;;;10.90;99.90;;;;;;4907891;29;20091;-78
2022/12/29 02:35:37;;;;;;;6.35;3.05;;;10.80;99.90;;;;;;4917160;29;20056;-77
2022/12/29 02:38:21;;;;;;;5.50;2.85;;;10.80;99.90;;;;;;4933933;29;20044;-77
2022/12/29 02:41:05;;;;;;;6.70;2.83;;;10.80;99.90;;;;;;4917277;29;20052;-76
2022/12/29 02:43:54;;;;;;;5.80;2.95;;;10.80;99.90;;;;;;4916993;29;20048;-76
2022/12/29 02:46:41;;;;;;;5.75;3.00;;;10.80;99.90;;;;;;4917586;29;20043;-73
2022/12/29 02:49:10;;;;;;;5.30;2.95;;;10.70;99.90;;;;;;4919779;29;20123;-77
2022/12/29 02:51:47;;;;;;;6.90;2.80;;;10.70;99.90;;;;;;4916846;29;20350;-74
2022/12/29 02:57:00;;;;;;;5.05;3.05;;;10.70;99.90;;;;;;4923469;29;20138;-73
2022/12/29 02:59:26;;;;;;;6.43;3.40;;;10.60;99.90;;;;;;4907685;29;20139;-78
2022/12/29 03:02:16;;;;;;;7.18;3.63;;;10.60;99.90;;;;;;4921578;29;20145;-75
2022/12/29 03:04:51;;;;;;;5.28;2.97;;;10.50;99.90;;;;;;4901309;29;20063;-81
2022/12/29 03:07:31;;;;;;;6.20;3.50;;;10.40;99.90;;;;;;4925340;29;20167;-75
2022/12/29 03:10:19;;;;;;;5.43;3.00;;;10.40;99.90;;;;;;4916211;29;20040;-77
2022/12/29 03:16:03;;;;;;;5.40;2.92;;;10.40;99.90;;;;;;4935907;29;20134;-86
2022/12/29 03:18:45;;;;;;;6.57;3.45;;;10.30;99.90;;;;;;4919263;29;20055;-82
2022/12/29 03:22:26;;;;;;;6.47;3.20;;;10.30;99.90;;;;;;4936756;29;20048;-76
2022/12/29 03:24:14;;;;;;;5.25;3.10;;;10.40;99.90;;;;;;4918634;29;20056;-79
2022/12/29 03:26:42;;;;;;;5.50;3.13;;;10.30;99.90;;;;;;4903604;29;20055;-81
2022/12/29 03:29:09;;;;;;;6.28;3.05;;;10.20;99.90;;;;;;4916190;29;20056;-81
2022/12/29 03:31:37;;;;;;;5.00;3.10;;;10.20;99.90;;;;;;4914235;29;20067;-80
2022/12/29 03:34:05;;;;;;;6.15;3.08;;;10.20;99.90;;;;;;4916200;29;20080;-82
2022/12/29 03:36:42;;;;;;;5.93;3.00;;;10.10;99.90;;;;;;4912542;29;20083;-77
2022/12/29 03:39:13;;;;;;;5.30;2.80;;;10.10;99.90;;;;;;4918628;29;20078;-77
2022/12/29 03:41:42;;;;;;;5.70;2.80;;;10.10;99.90;;;;;;4919324;29;20428;-82
2022/12/29 03:44:09;;;;;;;5.50;2.90;;;10.10;99.90;;;;;;4899950;29;20059;-79
2022/12/29 03:46:35;;;;;;;6.28;2.90;;;10.10;99.90;;;;;;4918405;29;20047;-83
2022/12/29 03:49:00;;;;;;;7.18;2.97;;;10.10;99.90;;;;;;4902964;29;20094;-78
2022/12/29 03:51:26;;;;;;;6.10;2.65;;;10.10;99.90;;;;;;4919177;29;20083;-82
2022/12/29 03:53:52;;;;;;;5.78;2.60;;;10.10;99.90;;;;;;4915544;29;20052;-84
2022/12/29 03:56:17;;;;;;;6.53;2.75;;;10.10;99.90;;;;;;4898736;29;20497;-82
2022/12/29 03:58:43;;;;;;;5.20;2.10;;;10.20;99.90;;;;;;4916001;29;20051;-78
2022/12/29 04:01:09;;;;;;;5.38;2.00;;;10.20;99.90;;;;;;4928598;29;20052;-81
2022/12/29 04:03:34;;;;;;;4.90;1.90;;;10.20;99.90;;;;;;4918678;29;20131;-80
2022/12/29 04:06:00;;;;;;;5.38;2.03;;;10.30;99.90;;;;;;4918865;29;20159;-81
2022/12/29 04:08:26;;;;;;;5.15;2.10;;;10.30;99.90;;;;;;4917834;29;20138;-80
2022/12/29 04:10:52;;;;;;;4.72;1.90;;;10.30;99.90;;;;;;4936105;29;20131;-81
2022/12/29 04:13:17;;;;;;;5.32;2.03;;;10.30;99.90;;;;;;4915763;29;20417;-80
2022/12/29 04:15:45;;;;;;;8.05;2.00;;;10.30;99.90;;;;;;4900789;29;20412;-81
2022/12/29 04:18:11;;;;;;;4.30;1.63;;;10.30;99.90;;;;;;4916756;29;20059;-78
2022/12/29 04:23:21;;;;;;;6.05;1.67;;;10.40;99.90;;;;;;4929399;29;20092;-77
2022/12/29 04:25:49;;;;;;;4.95;1.40;;;10.40;99.90;;;;;;4910860;29;20059;-76
2022/12/29 04:28:16;;;;;;;4.47;1.60;;;10.50;99.90;;;;;;4916231;29;20083;-77
2022/12/29 04:30:43;;;;;;;5.68;1.50;;;10.50;99.90;;;;;;4915685;29;20089;-77
2022/12/29 04:33:09;;;;;;;6.30;1.50;;;10.60;99.90;;;;;;4911725;29;20055;-78
2022/12/29 04:35:35;;;;;;;4.90;1.40;;;10.60;99.90;;;;;;4915289;29;20059;-76
2022/12/29 04:38:02;;;;;;;7.07;1.48;;;10.60;99.90;;;;;;4911272;29;20048;-79
2022/12/29 04:40:27;;;;;;;6.13;1.45;;;10.60;99.90;;;;;;4923599;29;20516;-79
2022/12/29 04:42:53;;;;;;;4.28;1.30;;;10.60;99.90;;;;;;4921050;29;20051;-77
2022/12/29 04:45:19;;;;;;;3.90;1.20;;;10.50;99.90;;;;;;4909060;29;20048;-79
2022/12/29 04:47:44;;;;;;;6.07;1.20;;;10.50;99.90;;;;;;4916683;29;20063;-80
2022/12/29 04:50:11;;;;;;;6.32;1.50;;;10.50;99.90;;;;;;4922283;29;20055;-79
2022/12/29 04:52:36;;;;;;;6.30;1.45;;;10.40;99.90;;;;;;4918581;29;20051;-79
2022/12/29 04:55:03;;;;;;;4.95;1.20;;;10.40;99.90;;;;;;4937898;29;20404;-77
2022/12/29 04:57:29;;;;;;;6.88;1.38;;;10.40;99.90;;;;;;4918984;29;20182;-76
2022/12/29 04:59:55;;;;;;;5.10;1.40;;;10.40;99.90;;;;;;4921789;29;20508;-76
2022/12/29 05:02:21;;;;;;;5.15;1.35;;;10.50;99.90;;;;;;4938896;29;20043;-76
2022/12/29 05:04:47;;;;;;;4.13;1.35;;;10.40;99.90;;;;;;4921896;29;20480;-76
2022/12/29 05:07:13;;;;;;;4.60;1.23;;;10.40;99.90;;;;;;4918183;29;20511;-76
2022/12/29 05:09:38;;;;;;;4.68;1.40;;;10.40;99.90;;;;;;4917417;29;20047;-76
2022/12/29 05:12:05;;;;;;;4.57;1.30;;;10.40;99.90;;;;;;4921899;29;20392;-75
2022/12/29 05:14:30;;;;;;;5.90;1.40;;;10.40;99.90;;;;;;4921915;29;20099;-74
2022/12/29 05:16:56;;;;;;;4.47;1.23;;;10.40;99.90;;;;;;4921526;29;20043;-77
2022/12/29 05:19:22;;;;;;;6.45;1.48;;;10.50;99.90;;;;;;4921866;29;20131;-76
2022/12/29 05:21:47;;;;;;;6.35;1.48;;;10.40;99.90;;;;;;4905576;29;20542;-75
2022/12/29 05:24:15;;;;;;;5.00;1.40;;;10.40;99.90;;;;;;4920439;29;20083;-76
2022/12/29 05:26:41;;;;;;;5.22;1.60;;;10.40;99.90;;;;;;4917511;29;20054;-75
2022/12/29 05:29:06;;;;;;;7.03;1.70;;;10.40;99.90;;;;;;4921120;29;20126;-76
2022/12/29 05:31:33;;;;;;;6.00;1.55;;;10.30;99.90;;;;;;4902101;29;20132;-74
2022/12/29 05:33:59;;;;;;;6.50;1.63;;;10.30;99.90;;;;;;4910263;29;20063;-76
2022/12/29 05:36:24;;;;;;;6.22;1.60;;;10.30;99.90;;;;;;4938406;29;20408;-75
2022/12/29 05:38:50;;;;;;;5.35;1.63;;;10.20;99.90;;;;;;4920221;29;20515;-74
2022/12/29 05:41:16;;;;;;;4.95;1.55;;;10.20;99.90;;;;;;4903880;29;20056;-75
2022/12/29 05:43:41;;;;;;;6.75;1.80;;;10.20;99.90;;;;;;4916459;29;20079;-76
2022/12/29 05:46:07;;;;;;;7.03;1.88;;;10.20;99.90;;;;;;4922023;29;20087;-76
2022/12/29 05:48:33;;;;;;;6.20;1.67;;;10.10;99.90;;;;;;4921009;29;20126;-74
2022/12/29 05:50:58;;;;;;;5.72;1.60;;;10.10;99.90;;;;;;4905107;29;20393;-75
2022/12/29 05:53:24;;;;;;;6.43;1.80;;;10.20;99.90;;;;;;4918334;29;20186;-74
2022/12/29 05:55:50;;;;;;;6.20;1.70;;;10.20;99.90;;;;;;4923689;29;20048;-75
2022/12/29 05:58:16;;;;;;;5.63;1.83;;;10.20;99.90;;;;;;4918298;29;20063;-75
2022/12/29 06:00:42;;;;;;;6.43;1.50;;;10.10;99.90;;;;;;4917061;29;20398;-75
2022/12/29 06:03:08;;;;;;;6.75;1.73;;;10.10;99.90;;;;;;4917102;29;20051;-74
2022/12/29 06:05:33;;;;;;;7.53;1.80;;;10.10;99.90;;;;;;4926916;29;20052;-73
2022/12/29 06:07:59;;;;;;;6.43;1.60;;;10.10;99.90;;;;;;4916974;29;20040;-77
2022/12/29 06:10:25;;;;;;;6.25;1.70;;;10.10;99.90;;;;;;4901052;29;20122;-75
2022/12/29 06:12:51;;;;;;;5.97;1.55;;;10.10;99.90;;;;;;4919871;29;20087;-75
2022/12/29 06:15:17;;;;;;;7.10;1.73;;;10.00;99.90;;;;;;4904880;29;20051;-75
2022/12/29 06:17:43;;;;;;;8.20;1.70;;;10.00;99.90;;;;;;4901541;29;20048;-75
2022/12/29 06:20:09;;;;;;;7.60;1.50;;;10.00;99.90;;;;;;4902993;29;20062;-75
2022/12/29 06:22:36;;;;;;;6.57;1.40;;;10.00;99.90;;;;;;4903989;29;20044;-75
2022/12/29 06:25:02;;;;;;;7.50;1.63;;;10.00;99.90;;;;;;4907300;29;20054;-75
2022/12/29 06:27:28;;;;;;;7.57;1.60;;;10.00;99.90;;;;;;4916629;29;20039;-75
2022/12/29 06:29:54;;;;;;;7.65;1.60;;;10.00;99.90;;;;;;4916832;29;20452;-75
2022/12/29 06:32:20;;;;;;;8.73;1.55;;;10.00;99.90;;;;;;4919544;29;20061;-74
2022/12/29 06:34:45;;;;;;;7.40;1.60;;;10.00;99.90;;;;;;4934989;29;20532;-75
2022/12/29 06:37:11;;;;;;;6.03;1.42;;;10.00;99.90;;;;;;4921075;29;20042;-74
2022/12/29 06:39:37;;;;;;;7.95;1.55;;;10.00;99.90;;;;;;4918214;29;20090;-75
2022/12/29 06:42:03;;;;;;;8.63;1.63;;;10.00;99.90;;;;;;4917815;29;20146;-75
2022/12/29 06:44:28;;;;;;;8.13;1.70;;;10.00;99.90;;;;;;4906006;29;20103;-74
2022/12/29 06:46:54;;;;;;;7.38;1.58;;;10.00;99.90;;;;;;4918332;29;20099;-75
2022/12/29 06:49:21;;;;;;;8.35;1.50;;;9.90;99.90;;;;;;4914946;29;20041;-74
2022/12/29 06:51:47;;;;;;;5.60;1.40;;;10.20;99.90;;;;;;4906824;29;20059;-74
2022/12/29 06:54:13;;;;;;;8.65;1.73;;;10.00;99.90;;;;;;4915723;29;20544;-74
2022/12/29 06:56:38;;;;;;;7.57;1.50;;;9.90;99.90;;;;;;4917215;29;20056;-74
2022/12/29 06:59:04;;;;;;;7.53;1.55;;;9.90;99.90;;;;;;4916212;29;20055;-74
2022/12/29 07:01:30;;;;;;;8.40;1.83;;;9.90;99.90;;;;;;4915466;29;20175;-74
2022/12/29 07:03:57;;;;;;;8.18;1.70;;;9.90;99.90;;;;;;4903548;29;20503;-73
2022/12/29 07:06:23;;;;;;;7.47;1.65;;;10.00;99.90;;;;;;4908923;29;20074;-73
2022/12/29 07:08:48;;;;;;;6.95;1.75;;;10.00;99.90;;;;;;4926856;29;20496;-74
2022/12/29 07:11:14;;;;;;;9.73;1.80;;;10.00;99.90;;;;;;4941111;29;20054;-73
2022/12/29 07:13:40;;;;;;;10.95;1.90;;;10.00;99.90;;;;;;4916615;29;20520;-73
2022/12/29 07:16:10;;;;;;;8.18;1.90;;;10.00;99.90;;;;;;4916461;29;20055;-73
2022/12/29 07:18:35;;;;;;;11.27;1.98;;;10.00;99.90;;;;;;4915980;29;20048;-73
2022/12/29 07:21:01;;;;;;;12.18;2.05;;;9.90;99.90;;;;;;4911588;29;20134;-73
2022/12/29 07:23:27;;;;;;;8.93;1.92;;;9.90;99.90;;;;;;4918286;29;20047;-74
2022/12/29 07:26:04;;;;;;;11.23;2.13;;;10.00;99.90;;;;;;4916713;29;20043;-71
2022/12/29 07:28:30;;;;;;;11.30;2.00;;;10.00;99.90;;;;;;4915705;29;20067;-74
2022/12/29 07:30:56;;;;;;;13.73;2.20;;;10.00;99.90;;;;;;4896921;29;20087;-74
2022/12/29 07:33:21;;;;;;;12.50;2.10;;;9.90;99.90;;;;;;4921045;29;20087;-74
2022/12/29 07:35:47;;;;;;;19.13;2.17;;;9.90;99.90;;;;;;4919228;29;20087;-72
2022/12/29 07:38:13;;;;;;;12.65;2.47;;;9.90;99.90;;;;;;4899430;29;20096;-73
2022/12/29 07:40:38;;;;;;;10.82;2.25;;;9.90;99.90;;;;;;4902554;29;20563;-74
2022/12/29 07:43:04;;;;;;;11.82;2.22;;;9.80;99.90;;;;;;4900437;29;20047;-74
2022/12/29 07:45:30;;;;;;;11.48;2.00;;;9.80;99.90;;;;;;4927274;29;20404;-74
2022/12/29 07:47:55;;;;;;;10.88;2.20;;;9.80;99.90;;;;;;4917965;29;20094;-73
2022/12/29 07:50:21;;;;;;;12.35;2.15;;;9.80;99.90;;;;;;4910020;29;20401;-75
2022/12/29 07:52:47;;;;;;;10.80;2.10;;;9.80;99.90;;;;;;4929242;29;20047;-74
2022/12/29 07:55:14;;;;;;;9.20;1.92;;;9.80;99.90;;;;;;4903103;29;20054;-74
2022/12/29 07:57:40;;;;;;;8.35;1.70;;;9.70;99.90;;;;;;4918331;29;20083;-74
2022/12/29 08:00:06;;;;;;;10.25;1.90;;;9.80;99.90;;;;;;4918895;29;20052;-74
2022/12/29 08:02:32;;;;;;;11.07;2.30;;;9.80;99.90;;;;;;4915924;29;20052;-74
2022/12/29 08:04:58;;;;;;;10.25;2.00;;;9.70;99.90;;;;;;4925873;29;20059;-74
2022/12/29 08:07:23;;;;;;;9.82;1.80;;;9.70;99.90;;;;;;4918025;29;20389;-74
2022/12/29 08:09:49;;;;;;;12.13;2.20;;;9.70;99.90;;;;;;4918475;29;20048;-73
2022/12/29 08:12:15;;;;;;;7.93;1.92;;;9.70;99.90;;;;;;4915975;29;20136;-74
2022/12/29 08:14:40;;;;;;;8.65;2.08;;;9.70;99.90;;;;;;4934284;29;20051;-72
2022/12/29 08:17:06;;;;;;;10.27;2.00;;;9.80;99.90;;;;;;4922305;29;20480;-73
2022/12/29 08:19:32;;;;;;;9.48;2.00;;;9.80;99.90;;;;;;4904191;29;20499;-74
2022/12/29 08:21:57;;;;;;;11.00;2.20;;;9.80;99.90;;;;;;4921480;29;20047;-74
2022/12/29 08:24:23;;;;;;;10.85;2.33;;;9.80;99.90;;;;;;4918064;29;20473;-73
2022/12/29 08:26:49;;;;;;;11.07;2.22;;;9.70;99.90;;;;;;4924036;29;20082;-74
2022/12/29 08:29:14;;;;;;;11.98;2.50;;;9.70;99.90;;;;;;4918444;29;20465;-73
2022/12/29 08:31:40;;;;;;;10.40;2.28;;;9.70;99.90;;;;;;4922789;29;20052;-73
2022/12/29 08:34:06;;;;;;;10.52;2.05;;;9.60;99.90;;;;;;4902477;29;20528;-73
2022/12/29 08:36:32;;;;;;;11.20;2.40;;;9.70;99.90;;;;;;4922783;29;20044;-73
2022/12/29 08:38:58;;;;;;;11.48;2.78;;;9.70;99.90;;;;;;4918577;29;20477;-74
2022/12/29 08:41:23;;;;;;;9.90;2.03;;;9.70;99.90;;;;;;4920326;29;20080;-73
2022/12/29 08:43:50;;;;;;;13.80;2.55;;;9.80;99.90;;;;;;4920024;29;20552;-74
2022/12/29 08:46:16;;;;;;;12.88;2.53;;;9.80;99.90;;;;;;4923264;29;20378;-74
2022/12/29 08:48:42;;;;;;;10.30;2.10;;;9.80;99.90;;;;;;4918704;29;20112;-74
2022/12/29 08:51:08;;;;;;;12.93;2.55;;;9.80;99.90;;;;;;4934261;29;20044;-72
2022/12/29 08:53:34;;;;;;;10.70;1.90;;;9.80;99.90;;;;;;4921096;29;20494;-74
2022/12/29 08:56:00;;;;;;;10.07;2.15;;;9.80;99.90;;;;;;4939066;29;20051;-73
2022/12/29 08:58:27;;;;;;;12.40;2.00;;;9.80;99.90;;;;;;4921492;29;20052;-74
2022/12/29 09:00:54;;;;;;;10.98;2.22;;;9.90;99.90;;;;;;4919189;29;20060;-73
2022/12/29 09:03:20;;;;;;;10.95;1.90;;;9.80;99.90;;;;;;4918886;29;20048;-74
2022/12/29 09:05:50;;;;;;;11.98;2.35;;;9.70;99.90;;;;;;4918650;29;20147;-73
2022/12/29 09:08:16;;;;;;;9.13;1.50;;;9.70;99.90;;;;;;4919104;29;20055;-74
2022/12/29 09:10:42;;;;;;;9.98;1.90;;;9.70;99.90;;;;;;4921982;29;20403;-74
2022/12/29 09:13:08;;;;;;;10.00;2.10;;;9.60;99.90;;;;;;4920796;29;20063;-74
2022/12/29 09:15:34;;;;;;;10.32;1.95;;;9.70;99.90;;;;;;4906228;29;20047;-73
2022/12/29 09:18:00;;;;;;;7.78;1.90;;;9.70;99.90;;;;;;4905461;29;20083;-74
2022/12/29 09:20:25;;;;;;;8.95;1.65;;;9.70;99.90;;;;;;4921819;29;20538;-72
2022/12/29 09:22:51;;;;;;;6.95;1.58;;;9.70;99.90;;;;;;4905024;29;20056;-74
2022/12/29 09:25:17;;;;;;;12.05;2.10;;;9.70;99.90;;;;;;4937785;29;20111;-74
2022/12/29 09:27:43;;;;;;;9.70;1.77;;;9.70;99.90;;;;;;4921262;29;20055;-71
2022/12/29 09:30:11;;;;;;;10.57;1.80;;;9.70;99.90;;;;;;4921032;29;20436;-73
2022/12/29 09:32:37;;;;;;;8.48;1.85;;;9.70;99.90;;;;;;4921396;29;20401;-75
2022/12/29 09:35:03;;;;;;;8.48;1.80;;;9.70;99.90;;;;;;4905666;29;20083;-74
2022/12/29 09:37:29;;;;;;;12.85;2.50;;;9.70;99.90;;;;;;4920169;29;20056;-74
2022/12/29 09:39:55;;;;;;;8.50;1.90;;;9.70;99.90;;;;;;4921515;29;20507;-71
2022/12/29 09:42:36;;;;;;;9.38;2.10;;;9.70;99.90;;;;;;4937612;29;20130;-73
2022/12/29 09:45:16;;;;;;;7.03;1.75;;;9.70;99.90;;;;;;4908925;29;20476;-74
2022/12/29 09:47:44;;;;;;;8.60;2.10;;;9.70;99.90;;;;;;4920670;29;20063;-74
2022/12/29 09:50:30;;;;;;;8.98;1.92;;;9.70;99.90;;;;;;4933455;29;20378;-74
2022/12/29 09:53:11;;;;;;;10.40;2.30;;;9.70;99.90;;;;;;4931659;29;20447;-73
2022/12/29 09:55:41;;;;;;;9.98;2.10;;;9.60;99.90;;;;;;4926971;29;20114;-73
2022/12/29 09:58:26;;;;;;;11.00;2.15;;;9.60;99.90;;;;;;4918035;29;20473;-72
2022/12/29 10:01:05;;;;;;;11.80;2.17;;;9.70;99.90;;;;;;4920855;29;20123;-74
2022/12/29 10:03:53;;;;;;;10.32;2.10;;;9.60;99.90;;;;;;4905016;29;20051;-74
2022/12/29 10:06:24;;;;;;;12.82;2.00;;;9.60;99.90;;;;;;4919868;29;20052;-73
2022/12/29 10:09:23;;;;;;;10.68;2.35;;;9.50;99.90;;;;;;4916787;29;20044;-74
2022/12/29 10:12:02;;;;;;;12.43;2.78;;;9.60;99.90;;;;;;4920596;29;20084;-76
2022/12/29 10:15:06;;;;;;;10.00;2.00;;;9.50;99.90;;;;;;4917803;29;20056;-75
2022/12/29 10:18:02;;;;;;;10.52;2.13;;;9.50;99.90;;;;;;4917674;29;20366;-74
2022/12/29 10:20:27;;;;;;;8.73;1.95;;;9.50;99.90;;;;;;4908438;29;20476;-73
2022/12/29 10:23:02;;;;;;;10.35;2.00;;;9.50;99.90;;;;;;4936547;29;20095;-73
2022/12/29 10:25:35;;;;;;;8.02;1.85;;;9.60;99.90;;;;;;4901858;29;20054;-74
2022/12/29 10:28:06;;;;;;;11.82;2.28;;;9.60;99.90;;;;;;4903918;29;20055;-74
2022/12/29 10:30:34;;;;;;;11.35;2.42;;;9.70;99.90;;;;;;4916632;29;20400;-74
2022/12/29 10:33:07;;;;;;;13.65;2.40;;;9.70;99.90;;;;;;4898561;29;20060;-74
2022/12/29 10:35:38;;;;;;;11.25;2.20;;;9.80;99.90;;;;;;4909671;29;20060;-74
2022/12/29 10:38:34;;;;;;;13.68;2.08;;;9.90;99.90;;;;;;4915144;29;20124;-74
2022/12/29 10:41:13;;;;;;;9.15;1.90;;;9.90;99.90;;;;;;4903838;29;20048;-72
2022/12/29 10:43:49;;;;;;;10.73;2.25;;;9.90;99.90;;;;;;4894386;29;20063;-74
2022/12/29 10:46:28;;;;;;;9.23;2.08;;;10.00;99.90;;;;;;4899614;29;20048;-75
2022/12/29 10:48:54;;;;;;;12.02;2.42;;;10.00;99.90;;;;;;4898043;29;20131;-74
2022/12/29 10:51:47;;;;;;;11.90;2.30;;;10.00;99.90;;;;;;4882095;29;20530;-74
2022/12/29 10:54:33;;;;;;;9.07;2.22;;;10.00;99.90;;;;;;4914681;29;20139;-74
2022/12/29 10:57:34;;;;;;;10.15;2.13;;;10.00;99.90;;;;;;4915842;29;20055;-74
2022/12/29 11:00:00;;;;;;;10.88;2.20;;;9.90;99.90;;;;;;4901273;29;20091;-75
2022/12/29 11:02:31;;;;;;;10.30;1.88;;;9.90;99.90;;;;;;4908028;29;20095;-74
2022/12/29 11:05:07;;;;;;;10.63;2.22;;;9.80;99.90;;;;;;4914158;29;20048;-74
2022/12/29 11:07:33;;;;;;;10.15;2.53;;;9.80;99.90;;;;;;4915871;29;20087;-75
2022/12/29 11:10:17;;;;;;;12.13;2.47;;;9.80;99.90;;;;;;4912862;29;20056;-74
2022/12/29 11:12:56;;;;;;;9.38;2.30;;;9.90;99.90;;;;;;4919167;29;20434;-74
2022/12/29 11:15:21;;;;;;;10.75;2.10;;;10.00;99.90;;;;;;4903767;29;20054;-75
2022/12/29 11:17:53;;;;;;;11.55;2.10;;;10.00;99.90;;;;;;4916035;29;20459;-74
2022/12/29 11:20:29;;;;;;;9.43;1.90;;;10.00;99.90;;;;;;4916534;29;20071;-73
2022/12/29 11:22:56;;;;;;;10.15;1.92;;;10.00;99.90;;;;;;4915195;29;20296;-74
2022/12/29 11:25:22;;;;;;;9.73;2.10;;;10.00;99.90;;;;;;4911709;29;20048;-75
2022/12/29 11:28:13;;;;;;;10.48;2.05;;;10.00;99.90;;;;;;4899831;29;20041;-75
2022/12/29 11:30:39;;;;;;;8.67;2.00;;;10.00;99.90;;;;;;4903639;29;20044;-73
2022/12/29 11:33:06;;;;;;;8.80;2.15;;;9.90;99.90;;;;;;4915239;29;20052;-74
2022/12/29 11:35:44;;;;;;;9.48;2.08;;;9.90;99.90;;;;;;4913113;29;20398;-75
2022/12/29 11:38:21;;;;;;;8.07;2.00;;;9.70;99.90;;;;;;4908382;29;20088;-75
2022/12/29 11:40:48;;;;;;;8.57;1.92;;;9.70;99.90;;;;;;4902673;29;20041;-75
2022/12/29 11:43:29;;;;;;;9.13;2.08;;;9.70;99.90;;;;;;4910229;29;20048;-75
2022/12/29 11:45:56;;;;;;;11.70;2.50;;;9.60;99.90;;;;;;4897646;29;20064;-75
2022/12/29 11:48:22;;;;;;;10.93;2.28;;;9.60;99.90;;;;;;4912320;29;20502;-75
2022/12/29 11:50:59;;;;;;;8.50;2.03;;;9.60;99.90;;;;;;4912935;29;20247;-74
2022/12/29 11:53:38;;;;;;;10.38;2.20;;;9.60;99.90;;;;;;4914363;29;20052;-74
2022/12/29 11:56:19;;;;;;;11.70;2.10;;;9.50;99.90;;;;;;4915886;29;20055;-74
2022/12/29 11:58:47;;;;;;;9.18;2.22;;;9.50;99.90;;;;;;4903628;29;20566;-74
2022/12/29 12:01:40;;;;;;;10.18;2.20;;;9.50;99.90;;;;;;4912587;29;20111;-74
2022/12/29 12:04:14;;;;;;;9.43;2.10;;;9.50;99.90;;;;;;4896121;29;20393;-73
2022/12/29 12:07:17;;;;;;;10.75;2.50;;;9.50;99.90;;;;;;4923680;29;20051;-73
2022/12/29 12:09:58;;;;;;;9.45;2.22;;;9.60;99.90;;;;;;4911607;29;20059;-74
2022/12/29 12:12:33;;;;;;;11.50;2.83;;;9.60;99.90;;;;;;4912517;29;20056;-73
2022/12/29 12:15:01;;;;;;;14.68;2.60;;;9.60;99.90;;;;;;4910323;29;20057;-75
2022/12/29 12:17:37;;;;;;;11.70;2.42;;;9.60;99.90;;;;;;4896726;29;20063;-74
2022/12/29 12:20:18;;;;;;;12.88;2.40;;;9.60;99.90;;;;;;4894200;29;20504;-75
2022/12/29 12:23:08;;;;;;;15.52;3.20;;;9.60;99.90;;;;;;4907686;29;20100;-74
2022/12/29 12:26:02;;;;;;;14.23;3.00;;;9.60;99.90;;;;;;4899474;29;20111;-74
2022/12/29 12:28:51;;;;;;;12.50;2.80;;;9.60;99.90;;;;;;4914215;29;20116;-74
2022/12/29 12:31:37;;;;;;;12.20;2.55;;;9.60;99.90;;;;;;4896989;29;20056;-73
2022/12/29 12:34:10;;;;;;;14.90;3.17;;;9.60;99.90;;;;;;4899315;29;20053;-74
2022/12/29 12:37:13;;;;;;;13.30;2.67;;;9.60;99.90;;;;;;4909296;29;20197;-74
2022/12/29 12:40:04;;;;;;;14.90;2.90;;;9.60;99.90;;;;;;4906845;29;20063;-76
2022/12/29 12:43:08;;;;;;;13.82;2.85;;;9.60;99.90;;;;;;4918188;29;20075;-74
2022/12/29 12:46:05;;;;;;;14.43;2.80;;;9.60;99.90;;;;;;4906913;29;20088;-76
2022/12/29 12:48:51;;;;;;;14.82;3.17;;;9.60;99.90;;;;;;4919175;29;20396;-73
2022/12/29 12:51:25;;;;;;;10.55;2.40;;;9.60;99.90;;;;;;4914286;29;20135;-73
2022/12/29 12:54:07;;;;;;;12.02;2.13;;;9.60;99.90;;;;;;4911800;29;20095;-74
2022/12/29 12:57:02;;;;;;;10.80;1.90;;;9.60;99.90;;;;;;4912763;29;20056;-74
2022/12/29 12:59:56;;;;;;;12.75;2.63;;;9.50;99.90;;;;;;4916781;29;20492;-75
2022/12/29 13:02:33;;;;;;;12.10;2.58;;;9.40;99.90;;;;;;4905365;29;20044;-74
2022/12/29 13:05:23;;;;;;;10.38;2.42;;;9.40;99.90;;;;;;4915893;29;20052;-75
2022/12/29 13:08:17;;;;;;;11.80;2.20;;;9.40;99.90;;;;;;4915404;29;20045;-75
2022/12/29 13:10:52;;;;;;;11.95;2.60;;;9.40;99.90;;;;;;4928052;29;20051;-75
2022/12/29 13:13:21;;;;;;;13.48;2.53;;;9.30;99.90;;;;;;4915208;29;20124;-74
2022/12/29 13:16:00;;;;;;;15.30;3.03;;;9.30;99.90;;;;;;4925434;29;20531;-74
2022/12/29 13:18:51;;;;;;;12.82;2.38;;;9.30;99.90;;;;;;4902279;29;20100;-74
2022/12/29 13:21:31;;;;;;;12.95;2.22;;;9.40;99.90;;;;;;4911959;29;20055;-75
2022/12/29 13:24:10;;;;;;;15.02;2.67;;;9.30;99.90;;;;;;4914771;29;20406;-76
2022/12/29 13:26:43;;;;;;;12.82;2.45;;;9.30;99.90;;;;;;4915628;29;20070;-75
2022/12/29 13:29:39;;;;;;;13.27;2.65;;;9.30;99.90;;;;;;4912090;29;20060;-73
2022/12/29 13:32:44;;;;;;;14.60;2.90;;;9.40;99.90;;;;;;4916235;29;20094;-74
2022/12/29 13:35:34;;;;;;;18.42;2.85;;;9.40;99.90;;;;;;4894743;29;20405;-74
2022/12/29 13:38:14;;;;;;;14.88;2.78;;;9.40;99.90;;;;;;4936050;29;20051;-75
2022/12/29 13:40:45;;;;;;;15.75;2.92;;;9.40;99.90;;;;;;4938246;29;20122;-75
2022/12/29 13:43:13;;;;;;;14.07;3.13;;;9.40;99.90;;;;;;4917551;29;20080;-75
2022/12/29 13:45:40;;;;;;;16.58;3.40;;;9.40;99.90;;;;;;4897647;29;20069;-75
2022/12/29 13:48:21;;;;;;;16.75;3.45;;;9.50;99.90;;;;;;4889520;29;20043;-75